createdAt,value
2018-07-03T00:01:29.623Z,75.74
2018-07-03T00:03:58.342Z,75.79
2018-07-03T00:06:27.098Z,75.89
2018-07-03T00:08:55.767Z,76.16
2018-07-03T00:11:24.503Z,76.28
2018-07-03T00:13:53.559Z,76.61
2018-07-03T00:16:27.326Z,76.27
2018-07-03T00:18:55.994Z,76.59
2018-07-03T00:21:24.724Z,77.33
2018-07-03T00:23:53.408Z,77.96
2018-07-03T00:26:22.119Z,77.46
2018-07-03T00:28:50.833Z,77.44
2018-07-03T00:31:19.504Z,77.32
2018-07-03T00:33:48.198Z,77.16
2018-07-03T00:36:16.886Z,76.69
2018-07-03T00:38:45.571Z,76.89
2018-07-03T00:41:14.342Z,76.44
2018-07-03T00:43:43.003Z,76.03
2018-07-03T00:46:11.675Z,76.20
2018-07-03T00:48:40.362Z,75.98
2018-07-03T00:51:09.008Z,75.86
2018-07-03T00:53:37.774Z,76.04
2018-07-03T00:56:06.696Z,75.97
2018-07-03T00:58:35.360Z,76.38
2018-07-03T01:01:04.076Z,76.41
2018-07-03T01:03:32.757Z,76.75
2018-07-03T01:06:01.387Z,76.65
2018-07-03T01:08:30.071Z,76.73
2018-07-03T01:10:59.216Z,76.80
2018-07-03T01:13:27.923Z,76.96
2018-07-03T01:15:56.683Z,77.19
2018-07-03T01:18:25.314Z,76.95
2018-07-03T01:20:53.998Z,76.72
2018-07-03T01:23:22.698Z,76.51
2018-07-03T01:25:51.421Z,76.71
2018-07-03T01:28:20.083Z,76.96
2018-07-03T01:30:48.716Z,76.56
2018-07-03T01:33:17.442Z,76.86
2018-07-03T01:35:46.096Z,76.99
2018-07-03T01:38:14.784Z,76.91
2018-07-03T01:40:43.458Z,77.46
2018-07-03T01:43:12.129Z,77.45
2018-07-03T01:45:40.850Z,77.51
2018-07-03T01:48:09.610Z,77.75
2018-07-03T01:50:38.235Z,78.17
2018-07-03T01:53:06.990Z,78.46
2018-07-03T01:55:35.650Z,78.71
2018-07-03T01:58:04.372Z,78.65
2018-07-03T02:00:33.115Z,78.84
2018-07-03T02:03:04.546Z,79.65
2018-07-03T02:05:33.229Z,79.44
2018-07-03T02:08:01.915Z,80.42
2018-07-03T02:10:30.623Z,81.61
2018-07-03T02:12:59.275Z,81.32
2018-07-03T02:15:27.947Z,80.83
2018-07-03T02:17:56.578Z,80.41
2018-07-03T02:20:25.256Z,79.97
2018-07-03T02:22:53.919Z,79.74
2018-07-03T02:25:22.594Z,79.54
2018-07-03T02:27:51.276Z,79.28
2018-07-03T02:30:19.986Z,79.55
2018-07-03T02:32:48.637Z,79.73
2018-07-03T02:35:17.328Z,79.52
2018-07-03T02:37:46.010Z,79.78
2018-07-03T02:40:14.783Z,79.72
2018-07-03T02:42:43.475Z,79.66
2018-07-03T02:45:12.243Z,79.55
2018-07-03T02:47:40.902Z,79.41
2018-07-03T02:50:09.623Z,79.28
2018-07-03T02:52:38.312Z,79.58
2018-07-03T02:55:07.032Z,79.28
2018-07-03T02:57:35.776Z,78.93
2018-07-03T03:00:06.002Z,79.04
2018-07-03T03:02:34.922Z,78.81
2018-07-03T03:05:03.711Z,78.89
2018-07-03T03:07:32.407Z,79.30
2018-07-03T03:10:01.058Z,79.19
2018-07-03T03:12:29.732Z,78.98
2018-07-03T03:14:58.406Z,79.90
2018-07-03T03:17:27.114Z,80.68
2018-07-03T03:19:55.841Z,79.88
2018-07-03T03:22:24.552Z,80.09
2018-07-03T03:24:53.369Z,80.28
2018-07-03T03:27:22.082Z,80.37
2018-07-03T03:29:50.780Z,80.35
2018-07-03T03:32:19.499Z,79.98
2018-07-03T03:34:48.174Z,79.91
2018-07-03T03:37:16.853Z,79.76
2018-07-03T03:39:45.594Z,80.45
2018-07-03T03:42:14.322Z,81.55
2018-07-03T03:44:43.085Z,82.15
2018-07-03T03:47:11.810Z,81.82
2018-07-03T03:49:40.513Z,82.37
2018-07-03T03:52:09.215Z,81.38
2018-07-03T03:54:37.945Z,81.08
2018-07-03T03:57:06.960Z,80.29
2018-07-03T03:59:35.703Z,81.04
2018-07-03T04:02:04.451Z,80.18
2018-07-03T04:04:33.174Z,79.64
2018-07-03T04:07:01.895Z,79.29
2018-07-03T04:09:30.578Z,79.05
2018-07-03T04:11:59.290Z,78.73
2018-07-03T04:14:27.964Z,78.76
2018-07-03T04:16:56.664Z,78.80
2018-07-03T04:19:25.354Z,78.99
2018-07-03T04:21:54.072Z,78.58
2018-07-03T04:24:22.734Z,78.57
2018-07-03T04:26:51.468Z,78.14
2018-07-03T04:29:20.161Z,78.04
2018-07-03T04:31:48.948Z,78.00
2018-07-03T04:34:17.635Z,77.83
2018-07-03T04:36:46.311Z,78.02
2018-07-03T04:39:15.054Z,77.55
2018-07-03T04:41:43.771Z,77.67
2018-07-03T04:44:12.602Z,76.90
2018-07-03T04:46:41.302Z,77.05
2018-07-03T04:49:10.011Z,77.09
2018-07-03T04:51:38.790Z,76.38
2018-07-03T04:54:07.530Z,76.03
2018-07-03T04:56:36.206Z,76.33
2018-07-03T04:59:04.911Z,76.19
2018-07-03T05:01:33.603Z,76.25
2018-07-03T05:04:02.328Z,75.93
2018-07-03T05:06:31.000Z,75.38
2018-07-03T05:08:59.725Z,75.52
2018-07-03T05:11:28.478Z,74.91
2018-07-03T05:13:57.177Z,74.55
2018-07-03T05:16:25.871Z,74.60
2018-07-03T05:18:54.559Z,74.46
2018-07-03T05:21:23.242Z,73.99
2018-07-03T05:23:51.930Z,73.93
2018-07-03T05:26:20.606Z,74.00
2018-07-03T05:28:49.348Z,74.25
2018-07-03T05:31:18.147Z,73.92
2018-07-03T05:33:46.897Z,73.79
2018-07-03T05:36:15.647Z,73.68
2018-07-03T05:38:44.313Z,72.71
2018-07-03T05:41:13.087Z,72.89
2018-07-03T05:43:41.810Z,72.63
2018-07-03T05:46:10.608Z,72.74
2018-07-03T05:48:39.348Z,72.27
2018-07-03T05:51:08.064Z,71.62
2018-07-03T05:53:36.777Z,71.52
2018-07-03T05:56:05.566Z,72.06
2018-07-03T05:58:34.242Z,71.09
2018-07-03T06:01:03.014Z,70.18
2018-07-03T06:03:31.688Z,69.93
2018-07-03T06:06:00.372Z,71.10
2018-07-03T06:08:29.107Z,69.92
2018-07-03T06:10:57.911Z,70.47
2018-07-03T06:13:26.592Z,70.40
2018-07-03T06:15:55.291Z,69.54
2018-07-03T06:18:24.118Z,69.58
2018-07-03T06:20:52.857Z,70.03
2018-07-03T06:23:21.507Z,69.59
2018-07-03T06:25:50.167Z,69.37
2018-07-03T06:28:18.947Z,68.30
2018-07-03T06:30:47.681Z,69.00
2018-07-03T06:33:16.451Z,68.19
2018-07-03T06:35:45.129Z,68.16
2018-07-03T06:38:13.880Z,68.97
2018-07-03T06:40:42.591Z,68.81
2018-07-03T06:43:11.234Z,69.35
2018-07-03T06:45:40.007Z,69.37
2018-07-03T06:48:08.729Z,67.50
2018-07-03T06:50:37.482Z,68.85
2018-07-03T06:53:06.170Z,68.05
2018-07-03T06:55:34.879Z,68.30
2018-07-03T06:58:03.574Z,68.24
2018-07-03T07:00:32.704Z,67.91
2018-07-03T07:03:01.478Z,67.86
2018-07-03T07:05:30.315Z,67.67
2018-07-03T07:08:15.250Z,68.31
2018-07-03T07:10:50.517Z,67.43
2018-07-03T07:13:19.212Z,67.60
2018-07-03T07:15:47.929Z,67.54
2018-07-03T07:18:16.602Z,66.86
2018-07-03T07:20:45.313Z,67.33
2018-07-03T07:23:13.998Z,66.74
2018-07-03T07:25:42.658Z,65.29
2018-07-03T07:28:11.366Z,65.34
2018-07-03T07:30:40.059Z,64.70
2018-07-03T07:33:08.735Z,65.44
2018-07-03T07:35:37.407Z,65.07
2018-07-03T07:38:06.400Z,65.12
2018-07-03T07:40:35.091Z,65.45
2018-07-03T07:43:03.835Z,64.80
2018-07-03T07:45:32.512Z,64.73
2018-07-03T07:48:01.214Z,64.31
2018-07-03T07:50:29.936Z,62.78
2018-07-03T07:52:58.626Z,63.01
2018-07-03T07:55:27.903Z,62.84
2018-07-03T07:57:56.602Z,62.06
2018-07-03T08:00:25.283Z,61.75
2018-07-03T08:02:54.179Z,61.61
2018-07-03T08:05:22.820Z,61.07
2018-07-03T08:07:51.493Z,60.96
2018-07-03T08:10:21.097Z,60.20
2018-07-03T08:12:50.110Z,60.04
2018-07-03T08:15:18.861Z,60.53
2018-07-03T08:17:47.568Z,60.17
2018-07-03T08:20:16.329Z,60.25
2018-07-03T08:22:44.993Z,59.84
2018-07-03T08:25:13.699Z,60.46
2018-07-03T08:27:42.359Z,58.42
2018-07-03T08:30:11.135Z,59.90
2018-07-03T08:32:39.929Z,59.11
2018-07-03T08:35:08.615Z,58.62
2018-07-03T08:37:37.313Z,58.09
2018-07-03T08:40:07.341Z,58.17
2018-07-03T08:42:36.141Z,57.29
2018-07-03T08:45:05.466Z,57.06
2018-07-03T08:47:34.102Z,57.13
2018-07-03T08:50:02.760Z,57.23
2018-07-03T08:52:31.471Z,58.87
2018-07-03T08:55:00.284Z,56.80
2018-07-03T08:57:29.018Z,56.27
2018-07-03T08:59:57.667Z,57.08
2018-07-03T09:02:26.376Z,56.41
2018-07-03T09:04:55.070Z,57.25
2018-07-03T09:07:24.074Z,54.60
2018-07-03T09:09:52.830Z,54.51
2018-07-03T09:12:21.514Z,55.04
2018-07-03T09:14:50.207Z,54.33
2018-07-03T09:17:24.030Z,53.36
2018-07-03T09:19:53.194Z,54.45
2018-07-03T09:22:21.995Z,53.57
2018-07-03T09:24:50.664Z,54.52
2018-07-03T09:27:19.406Z,52.16
2018-07-03T09:29:48.183Z,51.90
2018-07-03T09:32:16.925Z,52.45
2018-07-03T09:34:45.868Z,51.22
2018-07-03T09:37:14.555Z,52.39
2018-07-03T09:39:43.221Z,51.41
2018-07-03T09:42:12.280Z,51.27
2018-07-03T09:44:40.969Z,50.63
2018-07-03T09:47:09.652Z,50.77
2018-07-03T09:49:38.368Z,49.72
2018-07-03T09:52:07.075Z,50.05
2018-07-03T09:54:35.815Z,51.17
2018-07-03T09:57:04.489Z,48.82
2018-07-03T09:59:33.162Z,49.46
2018-07-03T10:02:01.980Z,47.02
2018-07-03T10:04:30.725Z,47.29
2018-07-03T10:06:59.401Z,48.16
2018-07-03T10:09:28.129Z,48.70
2018-07-03T10:11:57.390Z,48.39
2018-07-03T10:14:26.164Z,48.63
2018-07-03T10:16:56.015Z,48.25
2018-07-03T10:19:24.755Z,46.84
2018-07-03T10:21:53.527Z,47.56
2018-07-03T10:24:22.244Z,47.40
2018-07-03T10:26:50.920Z,45.76
2018-07-03T10:29:19.619Z,46.18
2018-07-03T10:31:48.361Z,46.30
2018-07-03T10:34:17.055Z,44.66
2018-07-03T10:36:45.842Z,47.03
2018-07-03T10:39:15.067Z,45.06
2018-07-03T10:41:43.743Z,47.06
2018-07-03T10:44:12.475Z,45.56
2018-07-03T10:46:41.171Z,45.18
2018-07-03T10:49:09.976Z,46.52
2018-07-03T10:51:38.647Z,47.35
2018-07-03T10:54:07.374Z,46.36
2018-07-03T10:56:36.086Z,46.27
2018-07-03T10:59:04.806Z,46.30
2018-07-03T11:01:33.448Z,45.30
2018-07-03T11:04:02.138Z,44.01
2018-07-03T11:06:30.826Z,42.22
2018-07-03T11:08:59.506Z,42.12
2018-07-03T11:11:28.198Z,41.93
2018-07-03T11:13:57.597Z,42.14
2018-07-03T11:16:26.243Z,39.86
2018-07-03T11:18:54.938Z,39.52
2018-07-03T11:21:23.619Z,41.50
2018-07-03T11:23:52.398Z,41.53
2018-07-03T11:26:21.117Z,38.11
2018-07-03T11:28:49.842Z,38.28
2018-07-03T11:31:18.596Z,38.37
2018-07-03T11:33:47.411Z,35.82
2018-07-03T11:36:16.065Z,37.03
2018-07-03T11:38:45.029Z,36.79
2018-07-03T11:41:13.743Z,36.59
2018-07-03T11:43:42.481Z,36.41
2018-07-03T11:46:11.308Z,35.50
2018-07-03T11:48:40.053Z,38.21
2018-07-03T11:51:08.786Z,35.66
2018-07-03T11:53:37.605Z,35.85
2018-07-03T11:56:06.301Z,36.37
2018-07-03T11:58:34.963Z,35.94
2018-07-03T12:01:03.822Z,35.94
2018-07-03T12:03:32.626Z,35.22
2018-07-03T12:06:01.399Z,34.83
2018-07-03T12:08:30.134Z,35.00
2018-07-03T12:10:58.837Z,34.01
2018-07-03T12:13:28.335Z,35.65
2018-07-03T12:15:57.055Z,35.37
2018-07-03T12:18:31.068Z,34.09
2018-07-03T12:20:59.768Z,34.74
2018-07-03T12:23:28.449Z,35.31
2018-07-03T12:25:57.152Z,35.41
2018-07-03T12:28:25.972Z,35.15
2018-07-03T12:30:54.697Z,35.79
2018-07-03T12:33:23.456Z,35.66
2018-07-03T12:35:52.116Z,36.24
2018-07-03T12:38:20.823Z,34.94
2018-07-03T12:40:49.593Z,36.40
2018-07-03T12:43:19.274Z,35.52
2018-07-03T12:45:48.007Z,37.00
2018-07-03T12:48:17.036Z,35.97
2018-07-03T12:50:45.816Z,36.19
2018-07-03T12:53:14.524Z,34.51
2018-07-03T12:55:43.256Z,34.68
2018-07-03T12:58:12.000Z,34.75
2018-07-03T13:00:40.731Z,33.82
2018-07-03T13:03:09.443Z,34.85
2018-07-03T13:05:38.143Z,35.78
2018-07-03T13:08:06.935Z,34.88
2018-07-03T13:10:35.798Z,34.99
2018-07-03T13:13:04.616Z,33.80
2018-07-03T13:15:33.342Z,32.56
2018-07-03T13:18:07.686Z,32.27
2018-07-03T13:20:36.427Z,32.51
2018-07-03T13:23:05.213Z,32.86
2018-07-03T13:25:34.407Z,33.19
2018-07-03T13:28:03.084Z,33.33
2018-07-03T13:30:31.803Z,31.74
2018-07-03T13:33:00.534Z,33.21
2018-07-03T13:35:29.361Z,33.21
2018-07-03T13:37:58.014Z,31.95
2018-07-03T13:40:26.844Z,32.66
2018-07-03T13:42:55.792Z,32.71
2018-07-03T13:45:25.392Z,32.84
2018-07-03T13:47:54.110Z,33.73
2018-07-03T13:50:22.803Z,32.42
2018-07-03T13:52:51.478Z,34.54
2018-07-03T13:55:20.189Z,35.79
2018-07-03T13:57:48.841Z,35.99
2018-07-03T14:00:17.626Z,33.38
2018-07-03T14:02:47.772Z,34.43
2018-07-03T14:05:16.616Z,34.24
2018-07-03T14:07:45.323Z,32.33
2018-07-03T14:10:14.210Z,32.45
2018-07-03T14:12:42.926Z,33.64
2018-07-03T14:15:11.596Z,32.77
2018-07-03T14:17:40.393Z,31.37
2018-07-03T14:20:09.144Z,33.28
2018-07-03T14:22:37.815Z,32.71
2018-07-03T14:25:06.555Z,33.35
2018-07-03T14:27:35.848Z,31.12
2018-07-03T14:30:06.078Z,31.27
2018-07-03T14:32:34.777Z,31.36
2018-07-03T14:35:03.524Z,31.99
2018-07-03T14:37:32.292Z,31.74
2018-07-03T14:40:01.043Z,31.89
2018-07-03T14:42:29.750Z,33.84
2018-07-03T14:44:58.466Z,31.90
2018-07-03T14:47:27.144Z,32.79
2018-07-03T14:49:55.823Z,31.95
2018-07-03T14:52:24.648Z,33.97
2018-07-03T14:54:53.405Z,33.17
2018-07-03T14:57:22.059Z,33.19
2018-07-03T14:59:50.748Z,32.69
2018-07-03T15:02:19.481Z,31.62
2018-07-03T15:04:48.171Z,31.04
2018-07-03T15:07:16.911Z,31.03
2018-07-03T15:09:45.641Z,30.97
2018-07-03T15:12:14.314Z,32.13
2018-07-03T15:14:43.042Z,32.51
2018-07-03T15:17:11.748Z,32.67
2018-07-03T15:19:45.612Z,31.01
2018-07-03T15:22:14.878Z,32.16
2018-07-03T15:24:43.627Z,31.41
2018-07-03T15:27:12.334Z,31.10
2018-07-03T15:29:41.050Z,33.46
2018-07-03T15:32:09.718Z,35.62
2018-07-03T15:34:38.375Z,36.48
2018-07-03T15:37:07.124Z,36.54
2018-07-03T15:39:35.840Z,37.33
2018-07-03T15:42:04.565Z,37.41
2018-07-03T15:44:44.437Z,38.73
2018-07-03T15:47:13.080Z,40.33
2018-07-03T15:49:41.727Z,41.25
2018-07-03T15:52:10.491Z,42.39
2018-07-03T15:54:39.133Z,42.89
2018-07-03T15:57:07.808Z,43.85
2018-07-03T15:59:36.533Z,43.63
2018-07-03T16:02:05.267Z,41.58
2018-07-03T16:05:00.171Z,41.29
2018-07-03T16:07:44.306Z,40.74
2018-07-03T16:10:13.072Z,41.66
2018-07-03T16:12:41.755Z,40.93
2018-07-03T16:15:10.419Z,41.19
2018-07-03T16:17:39.191Z,42.58
2018-07-03T16:20:13.041Z,43.77
2018-07-03T16:22:41.758Z,44.01
2018-07-03T16:25:10.510Z,45.20
2018-07-03T16:27:39.226Z,44.72
2018-07-03T16:30:08.932Z,45.32
2018-07-03T16:32:38.000Z,45.50
2018-07-03T16:35:06.976Z,45.59
2018-07-03T16:37:35.948Z,46.59
2018-07-03T16:40:04.849Z,45.88
2018-07-03T16:42:33.600Z,46.88
2018-07-03T16:45:02.307Z,46.49
2018-07-03T16:47:31.117Z,47.08
2018-07-03T16:49:59.810Z,47.55
2018-07-03T16:52:28.523Z,47.98
2018-07-03T16:54:57.177Z,47.03
2018-07-03T16:57:25.943Z,46.72
2018-07-03T16:59:55.134Z,47.38
2018-07-03T17:02:23.782Z,47.49
2018-07-03T17:04:52.477Z,48.43
2018-07-03T17:07:21.162Z,48.18
2018-07-03T17:09:49.790Z,48.76
2018-07-03T17:12:18.495Z,47.96
2018-07-03T17:14:47.117Z,49.54
2018-07-03T17:17:15.794Z,49.52
2018-07-03T17:19:44.433Z,50.07
2018-07-03T17:22:13.141Z,50.46
2018-07-03T17:24:42.199Z,51.36
2018-07-03T17:27:10.926Z,50.72
2018-07-03T17:29:39.590Z,51.33
2018-07-03T17:32:08.338Z,50.87
2018-07-03T17:34:37.008Z,52.22
2018-07-03T17:37:05.742Z,52.18
2018-07-03T17:39:45.570Z,52.76
2018-07-03T17:42:25.290Z,53.70
2018-07-03T17:46:03.352Z,53.44
2018-07-03T17:48:32.113Z,53.55
2018-07-03T17:51:00.817Z,54.74
2018-07-03T17:53:29.639Z,54.71
2018-07-03T17:55:58.939Z,55.52
2018-07-03T17:58:27.696Z,55.57
2018-07-03T18:00:56.581Z,55.54
2018-07-03T18:03:25.294Z,55.65
2018-07-03T18:05:54.061Z,55.50
2018-07-03T18:08:22.761Z,56.73
2018-07-03T18:10:51.501Z,56.78
2018-07-03T18:13:20.341Z,57.32
2018-07-03T18:15:49.203Z,57.99
2018-07-03T18:18:17.904Z,57.70
2018-07-03T18:20:46.591Z,57.23
2018-07-03T18:23:15.329Z,57.83
2018-07-03T18:25:44.039Z,57.54
2018-07-03T18:28:12.797Z,58.08
2018-07-03T18:30:41.530Z,57.74
2018-07-03T18:33:11.194Z,58.22
2018-07-03T18:35:39.982Z,57.85
2018-07-03T18:38:09.716Z,57.90
2018-07-03T18:40:38.411Z,58.68
2018-07-03T18:43:07.127Z,58.67
2018-07-03T18:45:35.888Z,58.44
2018-07-03T18:48:05.294Z,58.74
2018-07-03T18:50:34.058Z,59.61
2018-07-03T18:53:02.759Z,59.46
2018-07-03T18:55:31.728Z,59.62
2018-07-03T18:58:00.604Z,60.23
2018-07-03T19:00:29.439Z,60.51
2018-07-03T19:02:59.984Z,60.90
2018-07-03T19:05:28.904Z,61.17
2018-07-03T19:07:57.683Z,61.26
2018-07-03T19:10:26.415Z,61.96
2018-07-03T19:12:55.153Z,61.84
2018-07-03T19:15:23.937Z,62.59
2018-07-03T19:17:52.723Z,62.50
2018-07-03T19:20:21.540Z,62.66
2018-07-03T19:22:50.284Z,62.96
2018-07-03T19:25:19.048Z,63.06
2018-07-03T19:27:47.885Z,62.79
2018-07-03T19:30:17.944Z,63.98
2018-07-03T19:32:46.727Z,63.44
2018-07-03T19:35:15.557Z,63.61
2018-07-03T19:37:44.227Z,63.18
2018-07-03T19:40:13.264Z,63.86
2018-07-03T19:43:45.161Z,62.98
2018-07-03T19:46:13.969Z,63.16
2018-07-03T19:48:42.791Z,63.71
2018-07-03T19:51:11.574Z,63.95
2018-07-03T19:53:40.443Z,63.62
2018-07-03T19:56:09.239Z,63.99
2018-07-03T19:58:38.020Z,63.69
2018-07-03T20:01:06.818Z,63.76
2018-07-03T20:03:35.487Z,65.11
2018-07-03T20:06:04.335Z,64.84
2018-07-03T20:08:33.288Z,64.77
2018-07-03T20:11:03.077Z,65.44
2018-07-03T20:13:31.909Z,65.41
2018-07-03T20:16:00.654Z,65.15
2018-07-03T20:18:29.292Z,64.91
2018-07-03T20:20:58.059Z,65.05
2018-07-03T20:23:27.432Z,65.73
2018-07-03T20:25:56.176Z,66.10
2018-07-03T20:28:24.932Z,65.24
2018-07-03T20:30:53.637Z,65.97
2018-07-03T20:33:22.401Z,66.38
2018-07-03T20:35:51.065Z,66.78
2018-07-03T20:38:19.779Z,67.58
2018-07-03T20:41:10.262Z,67.39
2018-07-03T20:43:40.171Z,67.47
2018-07-03T20:46:09.691Z,67.58
2018-07-03T20:48:38.437Z,67.66
2018-07-03T20:51:07.195Z,67.75
2018-07-03T20:53:36.027Z,68.39
2018-07-03T20:56:04.900Z,67.90
2018-07-03T20:58:33.573Z,68.71
2018-07-03T21:01:02.319Z,68.82
2018-07-03T21:03:31.011Z,68.54
2018-07-03T21:05:59.759Z,68.74
2018-07-03T21:08:28.422Z,69.63
2018-07-03T21:10:57.166Z,68.90
2018-07-03T21:13:26.044Z,69.56
2018-07-03T21:15:54.948Z,69.44
2018-07-03T21:18:23.657Z,68.48
2018-07-03T21:20:52.422Z,68.64
2018-07-03T21:23:21.166Z,68.54
2018-07-03T21:25:49.822Z,69.02
2018-07-03T21:28:18.530Z,68.71
2018-07-03T21:30:47.276Z,69.13
2018-07-03T21:33:16.011Z,69.84
2018-07-03T21:35:45.187Z,70.02
2018-07-03T21:38:13.874Z,70.09
2018-07-03T21:40:42.592Z,69.25
2018-07-03T21:43:11.347Z,70.14
2018-07-03T21:45:40.011Z,69.20
2018-07-03T21:48:08.727Z,69.83
2018-07-03T21:50:37.496Z,69.34
2018-07-03T21:53:06.329Z,69.99
2018-07-03T21:55:35.052Z,70.42
2018-07-03T21:58:03.947Z,69.44
2018-07-03T22:00:35.569Z,69.47
2018-07-03T22:03:05.639Z,70.43
2018-07-03T22:05:34.381Z,70.24
2018-07-03T22:08:03.307Z,70.33
2018-07-03T22:10:32.309Z,70.46
2018-07-03T22:13:01.069Z,71.02
2018-07-03T22:15:29.859Z,70.98
2018-07-03T22:17:58.584Z,71.91
2018-07-03T22:20:27.241Z,72.31
2018-07-03T22:22:55.990Z,72.26
2018-07-03T22:25:24.707Z,72.25
2018-07-03T22:27:53.462Z,72.71
2018-07-03T22:30:22.457Z,72.13
2018-07-03T22:32:51.103Z,72.74
2018-07-03T22:35:19.858Z,73.42
2018-07-03T23:02:41.504Z,74.35
2018-07-03T23:05:10.211Z,75.05
2018-07-03T23:07:39.625Z,74.66
2018-07-03T23:10:08.279Z,74.95
2018-07-03T23:12:37.008Z,74.62
2018-07-03T23:15:05.846Z,74.78
2018-07-03T23:17:34.539Z,74.91
2018-07-03T23:20:03.332Z,75.18
2018-07-03T23:22:32.107Z,75.42
2018-07-03T23:25:00.786Z,74.84
2018-07-03T23:27:29.774Z,75.24
2018-07-03T23:32:26.161Z,75.11
2018-07-03T23:34:54.884Z,75.48
2018-07-03T23:37:23.601Z,75.40
2018-07-03T23:39:52.304Z,75.39
2018-07-03T23:42:21.027Z,75.30
2018-07-03T23:44:49.747Z,75.31
2018-07-03T23:47:29.602Z,75.53
2018-07-03T23:50:09.361Z,75.64
2018-07-03T23:52:49.208Z,75.50
2018-07-03T23:55:29.131Z,75.38
2018-07-03T23:58:08.898Z,75.58
